sensor_id;sensor_type;location;lat;lon;timestamp;P1;durP1;ratioP1;P2;durP2;ratioP2
48809;SDS011;40070;47.322;18.784;2023-03-14T00:00:12;10.78;;;3.40;;
48809;SDS011;40070;47.322;18.784;2023-03-14T00:02:09;9.80;;;3.50;;
48809;SDS011;40070;47.322;18.784;2023-03-14T00:04:10;9.89;;;3.40;;
48809;SDS011;40070;47.322;18.784;2023-03-14T00:06:11;7.82;;;3.40;;
48809;SDS011;40070;47.322;18.784;2023-03-14T00:08:12;8.11;;;3.20;;
48809;SDS011;40070;47.322;18.784;2023-03-14T00:10:14;9.10;;;3.20;;
48809;SDS011;40070;47.322;18.784;2023-03-14T00:12:13;10.88;;;3.30;;
48809;SDS011;40070;47.322;18.784;2023-03-14T00:14:14;7.02;;;3.10;;
48809;SDS011;40070;47.322;18.784;2023-03-14T00:16:15;8.31;;;3.70;;
48809;SDS011;40070;47.322;18.784;2023-03-14T00:18:16;7.02;;;3.00;;
48809;SDS011;40070;47.322;18.784;2023-03-14T00:20:17;6.92;;;2.40;;
48809;SDS011;40070;47.322;18.784;2023-03-14T00:22:18;8.70;;;3.30;;
48809;SDS011;40070;47.322;18.784;2023-03-14T00:24:19;9.19;;;3.60;;
48809;SDS011;40070;47.322;18.784;2023-03-14T00:26:20;9.40;;;3.30;;
48809;SDS011;40070;47.322;18.784;2023-03-14T00:28:24;8.12;;;3.20;;
48809;SDS011;40070;47.322;18.784;2023-03-14T00:30:24;7.12;;;3.40;;
48809;SDS011;40070;47.322;18.784;2023-03-14T00:32:25;7.21;;;3.10;;
48809;SDS011;40070;47.322;18.784;2023-03-14T00:34:30;9.29;;;3.70;;
48809;SDS011;40070;47.322;18.784;2023-03-14T00:36:31;8.00;;;2.90;;
48809;SDS011;40070;47.322;18.784;2023-03-14T00:38:32;9.18;;;3.40;;
48809;SDS011;40070;47.322;18.784;2023-03-14T00:40:33;9.18;;;3.40;;
48809;SDS011;40070;47.322;18.784;2023-03-14T00:42:34;7.50;;;3.00;;
48809;SDS011;40070;47.322;18.784;2023-03-14T00:44:35;9.47;;;3.90;;
48809;SDS011;40070;47.322;18.784;2023-03-14T00:46:36;9.77;;;3.80;;
48809;SDS011;40070;47.322;18.784;2023-03-14T00:48:37;10.35;;;3.60;;
48809;SDS011;40070;47.322;18.784;2023-03-14T00:50:38;7.89;;;3.50;;
48809;SDS011;40070;47.322;18.784;2023-03-14T00:52:39;9.37;;;3.50;;
48809;SDS011;40070;47.322;18.784;2023-03-14T00:54:40;8.99;;;3.10;;
48809;SDS011;40070;47.322;18.784;2023-03-14T00:56:42;8.29;;;3.50;;
48809;SDS011;40070;47.322;18.784;2023-03-14T00:58:44;9.87;;;3.10;;
48809;SDS011;40070;47.322;18.784;2023-03-14T01:00:45;10.66;;;2.90;;
48809;SDS011;40070;47.322;18.784;2023-03-14T01:02:46;10.46;;;3.20;;
48809;SDS011;40070;47.322;18.784;2023-03-14T01:04:47;9.58;;;3.70;;
48809;SDS011;40070;47.322;18.784;2023-03-14T01:06:49;8.59;;;3.10;;
48809;SDS011;40070;47.322;18.784;2023-03-14T01:08:50;9.09;;;3.20;;
48809;SDS011;40070;47.322;18.784;2023-03-14T01:10:51;8.00;;;3.20;;
48809;SDS011;40070;47.322;18.784;2023-03-14T01:12:52;10.17;;;3.90;;
48809;SDS011;40070;47.322;18.784;2023-03-14T01:14:53;8.19;;;3.30;;
48809;SDS011;40070;47.322;18.784;2023-03-14T01:16:55;10.64;;;4.19;;
48809;SDS011;40070;47.322;18.784;2023-03-14T01:18:56;11.34;;;3.80;;
48809;SDS011;40070;47.322;18.784;2023-03-14T01:20:57;13.42;;;4.69;;
48809;SDS011;40070;47.322;18.784;2023-03-14T01:22:58;10.16;;;3.90;;
48809;SDS011;40070;47.322;18.784;2023-03-14T01:24:59;7.99;;;3.40;;
48809;SDS011;40070;47.322;18.784;2023-03-14T01:27:02;10.38;;;3.50;;
48809;SDS011;40070;47.322;18.784;2023-03-14T01:29:02;9.78;;;3.80;;
48809;SDS011;40070;47.322;18.784;2023-03-14T01:31:04;9.09;;;4.00;;
48809;SDS011;40070;47.322;18.784;2023-03-14T01:33:04;12.36;;;3.80;;
48809;SDS011;40070;47.322;18.784;2023-03-14T01:35:05;8.99;;;3.80;;
48809;SDS011;40070;47.322;18.784;2023-03-14T01:37:06;10.27;;;4.10;;
48809;SDS011;40070;47.322;18.784;2023-03-14T01:39:08;9.18;;;3.90;;
48809;SDS011;40070;47.322;18.784;2023-03-14T01:41:14;8.88;;;3.80;;
48809;SDS011;40070;47.322;18.784;2023-03-14T01:43:29;12.14;;;4.10;;
48809;SDS011;40070;47.322;18.784;2023-03-14T01:46:06;9.58;;;4.00;;
48809;SDS011;40070;47.322;18.784;2023-03-14T01:47:31;12.54;;;4.00;;
48809;SDS011;40070;47.322;18.784;2023-03-14T01:49:38;11.25;;;4.40;;
48809;SDS011;40070;47.322;18.784;2023-03-14T01:51:44;10.16;;;4.59;;
48809;SDS011;40070;47.322;18.784;2023-03-14T01:53:43;9.18;;;4.20;;
48809;SDS011;40070;47.322;18.784;2023-03-14T01:55:47;8.56;;;3.89;;
48809;SDS011;40070;47.322;18.784;2023-03-14T01:57:59;9.07;;;3.70;;
48809;SDS011;40070;47.322;18.784;2023-03-14T02:00:03;9.35;;;3.69;;
48809;SDS011;40070;47.322;18.784;2023-03-14T02:02:02;8.07;;;3.40;;
48809;SDS011;40070;47.322;18.784;2023-03-14T02:04:05;8.37;;;3.59;;
48809;SDS011;40070;47.322;18.784;2023-03-14T02:06:08;8.36;;;3.49;;
48809;SDS011;40070;47.322;18.784;2023-03-14T02:08:14;8.26;;;3.09;;
48809;SDS011;40070;47.322;18.784;2023-03-14T02:10:16;9.14;;;3.79;;
48809;SDS011;40070;47.322;18.784;2023-03-14T02:12:17;8.45;;;3.79;;
48809;SDS011;40070;47.322;18.784;2023-03-14T02:14:26;8.36;;;3.49;;
48809;SDS011;40070;47.322;18.784;2023-03-14T02:16:19;9.83;;;3.49;;
48809;SDS011;40070;47.322;18.784;2023-03-14T02:18:20;12.38;;;3.79;;
48809;SDS011;40070;47.322;18.784;2023-03-14T02:22:42;6.87;;;2.99;;
48809;SDS011;40070;47.322;18.784;2023-03-14T02:25:17;10.90;;;3.59;;
48809;SDS011;40070;47.322;18.784;2023-03-14T02:27:23;9.14;;;3.59;;
48809;SDS011;40070;47.322;18.784;2023-03-14T02:29:24;7.08;;;2.80;;
48809;SDS011;40070;47.322;18.784;2023-03-14T02:31:25;7.07;;;3.59;;
48809;SDS011;40070;47.322;18.784;2023-03-14T02:33:28;7.47;;;3.29;;
48809;SDS011;40070;47.322;18.784;2023-03-14T02:37:47;12.20;;;3.79;;
48809;SDS011;40070;47.322;18.784;2023-03-14T02:39:42;10.13;;;4.39;;
48809;SDS011;40070;47.322;18.784;2023-03-14T02:41:42;8.75;;;3.79;;
48809;SDS011;40070;47.322;18.784;2023-03-14T02:43:43;9.05;;;3.89;;
48809;SDS011;40070;47.322;18.784;2023-03-14T02:45:57;12.88;;;3.69;;
48809;SDS011;40070;47.322;18.784;2023-03-14T02:48:01;12.39;;;4.19;;
48809;SDS011;40070;47.322;18.784;2023-03-14T02:50:36;9.14;;;3.99;;
48809;SDS011;40070;47.322;18.784;2023-03-14T02:52:04;10.61;;;4.09;;
48809;SDS011;40070;47.322;18.784;2023-03-14T02:54:06;9.43;;;4.09;;
48809;SDS011;40070;47.322;18.784;2023-03-14T02:56:07;10.12;;;4.19;;
48809;SDS011;40070;47.322;18.784;2023-03-14T02:58:08;10.91;;;3.99;;
48809;SDS011;40070;47.322;18.784;2023-03-14T03:00:09;9.14;;;3.89;;
48809;SDS011;40070;47.322;18.784;2023-03-14T03:02:09;9.34;;;3.69;;
48809;SDS011;40070;47.322;18.784;2023-03-14T03:04:10;9.92;;;3.59;;
48809;SDS011;40070;47.322;18.784;2023-03-14T03:06:11;11.39;;;3.89;;
48809;SDS011;40070;47.322;18.784;2023-03-14T03:08:12;9.03;;;3.59;;
48809;SDS011;40070;47.322;18.784;2023-03-14T03:10:13;12.18;;;4.39;;
48809;SDS011;40070;47.322;18.784;2023-03-14T03:12:14;12.18;;;3.49;;
48809;SDS011;40070;47.322;18.784;2023-03-14T03:14:15;9.15;;;3.49;;
48809;SDS011;40070;47.322;18.784;2023-03-14T03:16:16;10.02;;;3.79;;
48809;SDS011;40070;47.322;18.784;2023-03-14T03:18:17;8.06;;;3.59;;
48809;SDS011;40070;47.322;18.784;2023-03-14T03:20:17;8.94;;;3.69;;
48809;SDS011;40070;47.322;18.784;2023-03-14T03:22:18;8.54;;;3.79;;
48809;SDS011;40070;47.322;18.784;2023-03-14T03:24:20;10.89;;;3.89;;
48809;SDS011;40070;47.322;18.784;2023-03-14T03:26:21;10.87;;;3.59;;
48809;SDS011;40070;47.322;18.784;2023-03-14T03:28:22;9.02;;;3.79;;
48809;SDS011;40070;47.322;18.784;2023-03-14T03:30:23;10.99;;;3.29;;
48809;SDS011;40070;47.322;18.784;2023-03-14T03:32:24;9.41;;;3.79;;
48809;SDS011;40070;47.322;18.784;2023-03-14T03:34:26;8.71;;;3.39;;
48809;SDS011;40070;47.322;18.784;2023-03-14T03:36:26;9.71;;;4.09;;
48809;SDS011;40070;47.322;18.784;2023-03-14T03:38:27;8.25;;;3.79;;
48809;SDS011;40070;47.322;18.784;2023-03-14T03:40:28;11.99;;;5.09;;
48809;SDS011;40070;47.322;18.784;2023-03-14T03:42:28;9.34;;;4.19;;
48809;SDS011;40070;47.322;18.784;2023-03-14T03:44:30;9.24;;;3.99;;
48809;SDS011;40070;47.322;18.784;2023-03-14T03:46:34;8.56;;;3.10;;
48809;SDS011;40070;47.322;18.784;2023-03-14T03:48:35;8.17;;;3.79;;
48809;SDS011;40070;47.322;18.784;2023-03-14T03:50:36;8.86;;;4.09;;
48809;SDS011;40070;47.322;18.784;2023-03-14T03:52:37;9.24;;;4.49;;
48809;SDS011;40070;47.322;18.784;2023-03-14T03:54:38;8.16;;;4.09;;
48809;SDS011;40070;47.322;18.784;2023-03-14T03:56:40;9.44;;;3.49;;
48809;SDS011;40070;47.322;18.784;2023-03-14T03:58:40;9.53;;;3.79;;
48809;SDS011;40070;47.322;18.784;2023-03-14T04:00:42;8.45;;;3.99;;
48809;SDS011;40070;47.322;18.784;2023-03-14T04:02:43;9.83;;;3.79;;
48809;SDS011;40070;47.322;18.784;2023-03-14T04:04:44;10.32;;;4.49;;
48809;SDS011;40070;47.322;18.784;2023-03-14T04:06:45;11.31;;;3.89;;
48809;SDS011;40070;47.322;18.784;2023-03-14T04:08:46;9.34;;;3.79;;
48809;SDS011;40070;47.322;18.784;2023-03-14T04:10:47;9.83;;;3.59;;
48809;SDS011;40070;47.322;18.784;2023-03-14T04:12:48;10.42;;;4.09;;
48809;SDS011;40070;47.322;18.784;2023-03-14T04:14:49;11.78;;;4.69;;
48809;SDS011;40070;47.322;18.784;2023-03-14T04:16:54;11.08;;;4.09;;
48809;SDS011;40070;47.322;18.784;2023-03-14T04:18:55;6.85;;;3.09;;
48809;SDS011;40070;47.322;18.784;2023-03-14T04:20:56;9.97;;;3.69;;
48809;SDS011;40070;47.322;18.784;2023-03-14T04:22:57;7.84;;;3.49;;
48809;SDS011;40070;47.322;18.784;2023-03-14T04:24:58;10.30;;;4.99;;
48809;SDS011;40070;47.322;18.784;2023-03-14T04:26:58;10.20;;;4.09;;
48809;SDS011;40070;47.322;18.784;2023-03-14T04:29:00;8.83;;;4.39;;
48809;SDS011;40070;47.322;18.784;2023-03-14T04:31:06;10.99;;;4.49;;
48809;SDS011;40070;47.322;18.784;2023-03-14T04:33:02;9.03;;;4.19;;
48809;SDS011;40070;47.322;18.784;2023-03-14T04:35:03;10.11;;;4.59;;
48809;SDS011;40070;47.322;18.784;2023-03-14T04:37:03;11.59;;;4.79;;
48809;SDS011;40070;47.322;18.784;2023-03-14T04:39:04;9.33;;;4.09;;
48809;SDS011;40070;47.322;18.784;2023-03-14T04:41:07;10.11;;;4.19;;
48809;SDS011;40070;47.322;18.784;2023-03-14T04:43:08;12.88;;;4.09;;
48809;SDS011;40070;47.322;18.784;2023-03-14T04:45:09;10.22;;;4.29;;
48809;SDS011;40070;47.322;18.784;2023-03-14T04:47:10;10.10;;;4.79;;
48809;SDS011;40070;47.322;18.784;2023-03-14T04:49:11;13.33;;;4.29;;
48809;SDS011;40070;47.322;18.784;2023-03-14T04:51:12;11.76;;;3.89;;
48809;SDS011;40070;47.322;18.784;2023-03-14T04:53:13;9.30;;;3.69;;
48809;SDS011;40070;47.322;18.784;2023-03-14T04:55:14;9.59;;;4.09;;
48809;SDS011;40070;47.322;18.784;2023-03-14T04:57:15;7.05;;;3.09;;
48809;SDS011;40070;47.322;18.784;2023-03-14T04:59:15;8.52;;;3.59;;
48809;SDS011;40070;47.322;18.784;2023-03-14T05:01:17;7.34;;;3.19;;
48809;SDS011;40070;47.322;18.784;2023-03-14T05:03:18;9.01;;;3.29;;
48809;SDS011;40070;47.322;18.784;2023-03-14T05:05:18;9.40;;;3.79;;
48809;SDS011;40070;47.322;18.784;2023-03-14T05:07:19;11.34;;;3.89;;
48809;SDS011;40070;47.322;18.784;2023-03-14T05:09:20;8.80;;;3.29;;
48809;SDS011;40070;47.322;18.784;2023-03-14T05:11:24;11.73;;;3.99;;
48809;SDS011;40070;47.322;18.784;2023-03-14T05:13:25;21.34;;;6.78;;
48809;SDS011;40070;47.322;18.784;2023-03-14T05:15:26;29.72;;;10.37;;
48809;SDS011;40070;47.322;18.784;2023-03-14T05:17:27;12.50;;;5.19;;
48809;SDS011;40070;47.322;18.784;2023-03-14T05:19:28;11.33;;;4.39;;
48809;SDS011;40070;47.322;18.784;2023-03-14T05:21:29;9.16;;;4.19;;
48809;SDS011;40070;47.322;18.784;2023-03-14T05:23:30;45.99;;;18.64;;
48809;SDS011;40070;47.322;18.784;2023-03-14T05:25:31;13.82;;;4.49;;
48809;SDS011;40070;47.322;18.784;2023-03-14T05:27:32;12.00;;;3.99;;
48809;SDS011;40070;47.322;18.784;2023-03-14T05:29:33;8.48;;;3.79;;
48809;SDS011;40070;47.322;18.784;2023-03-14T05:31:37;7.62;;;2.89;;
48809;SDS011;40070;47.322;18.784;2023-03-14T05:33:38;7.24;;;2.79;;
48809;SDS011;40070;47.322;18.784;2023-03-14T05:35:39;9.99;;;3.69;;
48809;SDS011;40070;47.322;18.784;2023-03-14T05:37:40;9.41;;;3.29;;
48809;SDS011;40070;47.322;18.784;2023-03-14T05:39:42;8.05;;;3.09;;
48809;SDS011;40070;47.322;18.784;2023-03-14T05:41:42;7.66;;;3.19;;
48809;SDS011;40070;47.322;18.784;2023-03-14T05:43:43;8.84;;;3.89;;
48809;SDS011;40070;47.322;18.784;2023-03-14T05:45:43;8.74;;;3.49;;
48809;SDS011;40070;47.322;18.784;2023-03-14T05:47:44;7.18;;;3.59;;
48809;SDS011;40070;47.322;18.784;2023-03-14T05:49:45;9.05;;;3.19;;
48809;SDS011;40070;47.322;18.784;2023-03-14T05:51:46;8.56;;;3.00;;
48809;SDS011;40070;47.322;18.784;2023-03-14T05:53:47;10.92;;;4.19;;
48809;SDS011;40070;47.322;18.784;2023-03-14T05:55:50;12.10;;;3.89;;
48809;SDS011;40070;47.322;18.784;2023-03-14T05:57:49;7.67;;;3.19;;
48809;SDS011;40070;47.322;18.784;2023-03-14T05:59:50;8.06;;;3.29;;
48809;SDS011;40070;47.322;18.784;2023-03-14T06:01:50;10.32;;;3.79;;
48809;SDS011;40070;47.322;18.784;2023-03-14T06:03:51;9.54;;;3.29;;
48809;SDS011;40070;47.322;18.784;2023-03-14T06:05:52;8.27;;;3.89;;
48809;SDS011;40070;47.322;18.784;2023-03-14T06:07:53;10.43;;;3.79;;
48809;SDS011;40070;47.322;18.784;2023-03-14T06:09:54;8.56;;;3.29;;
48809;SDS011;40070;47.322;18.784;2023-03-14T06:11:55;6.80;;;3.20;;
48809;SDS011;40070;47.322;18.784;2023-03-14T06:13:56;8.77;;;3.20;;
48809;SDS011;40070;47.322;18.784;2023-03-14T06:15:57;8.97;;;3.40;;
48809;SDS011;40070;47.322;18.784;2023-03-14T06:17:58;8.37;;;3.50;;
48809;SDS011;40070;47.322;18.784;2023-03-14T06:19:59;7.59;;;3.10;;
48809;SDS011;40070;47.322;18.784;2023-03-14T06:22:00;8.88;;;3.10;;
48809;SDS011;40070;47.322;18.784;2023-03-14T06:24:01;7.89;;;3.70;;
48809;SDS011;40070;47.322;18.784;2023-03-14T06:26:03;7.59;;;3.40;;
48809;SDS011;40070;47.322;18.784;2023-03-14T06:28:04;7.69;;;3.50;;
48809;SDS011;40070;47.322;18.784;2023-03-14T06:30:05;7.59;;;3.10;;
48809;SDS011;40070;47.322;18.784;2023-03-14T06:32:06;8.18;;;3.50;;
48809;SDS011;40070;47.322;18.784;2023-03-14T06:34:07;8.28;;;3.20;;
48809;SDS011;40070;47.322;18.784;2023-03-14T06:36:08;12.02;;;4.59;;
48809;SDS011;40070;47.322;18.784;2023-03-14T06:38:09;14.29;;;4.39;;
48809;SDS011;40070;47.322;18.784;2023-03-14T06:40:13;9.46;;;4.09;;
48809;SDS011;40070;47.322;18.784;2023-03-14T06:42:11;9.07;;;3.30;;
48809;SDS011;40070;47.322;18.784;2023-03-14T06:44:12;8.97;;;3.10;;
48809;SDS011;40070;47.322;18.784;2023-03-14T06:46:13;9.66;;;3.50;;
48809;SDS011;40070;47.322;18.784;2023-03-14T06:48:13;9.65;;;4.39;;
48809;SDS011;40070;47.322;18.784;2023-03-14T06:50:14;8.56;;;3.69;;
48809;SDS011;40070;47.322;18.784;2023-03-14T06:52:15;12.11;;;4.29;;
48809;SDS011;40070;47.322;18.784;2023-03-14T06:54:16;11.82;;;3.79;;
48809;SDS011;40070;47.322;18.784;2023-03-14T06:56:17;7.40;;;3.30;;
48809;SDS011;40070;47.322;18.784;2023-03-14T06:58:18;9.17;;;3.90;;
48809;SDS011;40070;47.322;18.784;2023-03-14T07:00:19;8.68;;;3.30;;
48809;SDS011;40070;47.322;18.784;2023-03-14T07:02:20;9.87;;;3.60;;
48809;SDS011;40070;47.322;18.784;2023-03-14T07:04:21;8.30;;;3.90;;
48809;SDS011;40070;47.322;18.784;2023-03-14T07:06:22;11.76;;;3.70;;
48809;SDS011;40070;47.322;18.784;2023-03-14T07:08:23;9.98;;;3.20;;
48809;SDS011;40070;47.322;18.784;2023-03-14T07:10:24;9.38;;;3.60;;
48809;SDS011;40070;47.322;18.784;2023-03-14T07:12:25;7.80;;;2.70;;
48809;SDS011;40070;47.322;18.784;2023-03-14T07:14:27;7.11;;;2.80;;
48809;SDS011;40070;47.322;18.784;2023-03-14T07:16:27;8.30;;;3.00;;
48809;SDS011;40070;47.322;18.784;2023-03-14T07:18:28;8.01;;;3.00;;
48809;SDS011;40070;47.322;18.784;2023-03-14T07:20:29;6.82;;;2.70;;
48809;SDS011;40070;47.322;18.784;2023-03-14T07:22:30;7.62;;;3.10;;
48809;SDS011;40070;47.322;18.784;2023-03-14T07:24:31;6.53;;;2.80;;
48809;SDS011;40070;47.322;18.784;2023-03-14T07:26:32;6.14;;;2.60;;
48809;SDS011;40070;47.322;18.784;2023-03-14T07:28:33;6.93;;;2.80;;
48809;SDS011;40070;47.322;18.784;2023-03-14T07:30:34;7.72;;;2.80;;
48809;SDS011;40070;47.322;18.784;2023-03-14T07:32:35;9.31;;;2.80;;
48809;SDS011;40070;47.322;18.784;2023-03-14T07:34:36;8.03;;;3.10;;
48809;SDS011;40070;47.322;18.784;2023-03-14T07:36:38;7.53;;;3.30;;
48809;SDS011;40070;47.322;18.784;2023-03-14T07:38:38;9.52;;;3.30;;
48809;SDS011;40070;47.322;18.784;2023-03-14T07:40:40;8.23;;;3.10;;
48809;SDS011;40070;47.322;18.784;2023-03-14T07:42:43;4.27;;;2.00;;
48809;SDS011;40070;47.322;18.784;2023-03-14T07:44:42;6.25;;;2.40;;
48809;SDS011;40070;47.322;18.784;2023-03-14T07:46:43;7.65;;;2.70;;
48809;SDS011;40070;47.322;18.784;2023-03-14T07:48:46;7.94;;;2.50;;
48809;SDS011;40070;47.322;18.784;2023-03-14T07:50:50;6.16;;;2.20;;
48809;SDS011;40070;47.322;18.784;2023-03-14T07:52:48;6.16;;;2.10;;
48809;SDS011;40070;47.322;18.784;2023-03-14T07:54:50;5.86;;;1.90;;
48809;SDS011;40070;47.322;18.784;2023-03-14T07:56:51;6.06;;;2.40;;
48809;SDS011;40070;47.322;18.784;2023-03-14T07:58:52;4.57;;;1.80;;
48809;SDS011;40070;47.322;18.784;2023-03-14T08:00:53;4.57;;;2.00;;
48809;SDS011;40070;47.322;18.784;2023-03-14T08:02:54;5.37;;;2.00;;
48809;SDS011;40070;47.322;18.784;2023-03-14T08:04:54;6.07;;;1.90;;
48809;SDS011;40070;47.322;18.784;2023-03-14T08:06:55;7.66;;;1.70;;
48809;SDS011;40070;47.322;18.784;2023-03-14T08:08:56;6.86;;;2.10;;
48809;SDS011;40070;47.322;18.784;2023-03-14T08:11:02;4.08;;;1.80;;
48809;SDS011;40070;47.322;18.784;2023-03-14T08:12:59;7.55;;;2.30;;
48809;SDS011;40070;47.322;18.784;2023-03-14T08:14:59;5.37;;;2.30;;
48809;SDS011;40070;47.322;18.784;2023-03-14T08:17:00;7.85;;;2.30;;
48809;SDS011;40070;47.322;18.784;2023-03-14T08:19:01;5.27;;;2.00;;
48809;SDS011;40070;47.322;18.784;2023-03-14T08:21:02;6.86;;;2.20;;
48809;SDS011;40070;47.322;18.784;2023-03-14T08:23:03;5.67;;;2.20;;
48809;SDS011;40070;47.322;18.784;2023-03-14T08:25:04;4.38;;;2.00;;
48809;SDS011;40070;47.322;18.784;2023-03-14T08:27:05;4.48;;;2.00;;
48809;SDS011;40070;47.322;18.784;2023-03-14T08:29:06;4.88;;;2.20;;
48809;SDS011;40070;47.322;18.784;2023-03-14T08:31:06;6.57;;;1.60;;
48809;SDS011;40070;47.322;18.784;2023-03-14T08:33:07;4.98;;;1.90;;
48809;SDS011;40070;47.322;18.784;2023-03-14T08:35:09;6.18;;;1.80;;
48809;SDS011;40070;47.322;18.784;2023-03-14T08:37:09;4.68;;;2.00;;
48809;SDS011;40070;47.322;18.784;2023-03-14T08:39:10;6.17;;;2.10;;
48809;SDS011;40070;47.322;18.784;2023-03-14T08:41:11;6.08;;;2.20;;
48809;SDS011;40070;47.322;18.784;2023-03-14T08:43:12;6.27;;;2.50;;
48809;SDS011;40070;47.322;18.784;2023-03-14T08:45:14;6.97;;;2.10;;
48809;SDS011;40070;47.322;18.784;2023-03-14T08:47:14;6.27;;;2.50;;
48809;SDS011;40070;47.322;18.784;2023-03-14T08:49:15;5.88;;;2.30;;
48809;SDS011;40070;47.322;18.784;2023-03-14T08:51:16;5.98;;;2.10;;
48809;SDS011;40070;47.322;18.784;2023-03-14T08:53:17;6.38;;;2.30;;
48809;SDS011;40070;47.322;18.784;2023-03-14T08:55:19;6.08;;;2.10;;
48809;SDS011;40070;47.322;18.784;2023-03-14T08:57:19;7.17;;;1.90;;
48809;SDS011;40070;47.322;18.784;2023-03-14T08:59:20;4.38;;;1.50;;
48809;SDS011;40070;47.322;18.784;2023-03-14T09:01:22;3.69;;;1.00;;
48809;SDS011;40070;47.322;18.784;2023-03-14T09:03:23;2.19;;;0.80;;
48809;SDS011;40070;47.322;18.784;2023-03-14T09:05:24;3.89;;;1.20;;
48809;SDS011;40070;47.322;18.784;2023-03-14T09:07:25;1.30;;;0.70;;
48809;SDS011;40070;47.322;18.784;2023-03-14T09:09:26;1.00;;;0.50;;
48809;SDS011;40070;47.322;18.784;2023-03-14T09:11:26;1.30;;;0.40;;
48809;SDS011;40070;47.322;18.784;2023-03-14T09:13:27;1.10;;;0.40;;
48809;SDS011;40070;47.322;18.784;2023-03-14T09:15:28;2.10;;;0.60;;
48809;SDS011;40070;47.322;18.784;2023-03-14T09:17:29;2.60;;;0.50;;
48809;SDS011;40070;47.322;18.784;2023-03-14T09:19:30;2.00;;;0.60;;
48809;SDS011;40070;47.322;18.784;2023-03-14T09:21:31;2.00;;;0.50;;
48809;SDS011;40070;47.322;18.784;2023-03-14T09:23:32;1.50;;;0.60;;
48809;SDS011;40070;47.322;18.784;2023-03-14T09:25:34;1.90;;;0.50;;
48809;SDS011;40070;47.322;18.784;2023-03-14T09:27:35;1.50;;;0.60;;
48809;SDS011;40070;47.322;18.784;2023-03-14T09:29:36;3.40;;;0.60;;
48809;SDS011;40070;47.322;18.784;2023-03-14T09:31:40;1.50;;;0.50;;
48809;SDS011;40070;47.322;18.784;2023-03-14T09:33:42;1.80;;;0.60;;
48809;SDS011;40070;47.322;18.784;2023-03-14T09:35:43;2.30;;;0.60;;
48809;SDS011;40070;47.322;18.784;2023-03-14T09:37:44;1.60;;;0.70;;
48809;SDS011;40070;47.322;18.784;2023-03-14T09:39:45;2.30;;;0.60;;
48809;SDS011;40070;47.322;18.784;2023-03-14T09:41:52;1.40;;;0.60;;
48809;SDS011;40070;47.322;18.784;2023-03-14T09:44:42;3.30;;;0.70;;
48809;SDS011;40070;47.322;18.784;2023-03-14T09:45:59;1.40;;;0.50;;
48809;SDS011;40070;47.322;18.784;2023-03-14T09:47:59;7.29;;;1.20;;
48809;SDS011;40070;47.322;18.784;2023-03-14T09:50:02;1.30;;;0.60;;
48809;SDS011;40070;47.322;18.784;2023-03-14T09:54:26;1.80;;;0.40;;
48809;SDS011;40070;47.322;18.784;2023-03-14T09:56:20;1.70;;;0.60;;
48809;SDS011;40070;47.322;18.784;2023-03-14T09:58:23;2.80;;;1.00;;
48809;SDS011;40070;47.322;18.784;2023-03-14T10:00:30;1.80;;;0.70;;
48809;SDS011;40070;47.322;18.784;2023-03-14T10:02:45;2.40;;;0.90;;
48809;SDS011;40070;47.322;18.784;2023-03-14T10:04:48;1.40;;;0.50;;
48809;SDS011;40070;47.322;18.784;2023-03-14T10:06:47;2.50;;;1.10;;
48809;SDS011;40070;47.322;18.784;2023-03-14T10:08:48;2.30;;;0.70;;
48809;SDS011;40070;47.322;18.784;2023-03-14T10:10:54;2.60;;;0.90;;
48809;SDS011;40070;47.322;18.784;2023-03-14T10:13:12;1.90;;;0.70;;
48809;SDS011;40070;47.322;18.784;2023-03-14T10:15:07;1.80;;;0.70;;
48809;SDS011;40070;47.322;18.784;2023-03-14T10:17:13;1.80;;;0.70;;
48809;SDS011;40070;47.322;18.784;2023-03-14T10:19:17;1.90;;;0.50;;
48809;SDS011;40070;47.322;18.784;2023-03-14T10:21:29;1.70;;;0.50;;
48809;SDS011;40070;47.322;18.784;2023-03-14T10:23:23;2.60;;;0.60;;
48809;SDS011;40070;47.322;18.784;2023-03-14T10:25:28;1.50;;;0.60;;
48809;SDS011;40070;47.322;18.784;2023-03-14T10:27:34;1.80;;;0.70;;
48809;SDS011;40070;47.322;18.784;2023-03-14T10:29:50;1.60;;;0.60;;
48809;SDS011;40070;47.322;18.784;2023-03-14T10:31:53;1.80;;;0.60;;
48809;SDS011;40070;47.322;18.784;2023-03-14T10:33:42;1.50;;;0.50;;
48809;SDS011;40070;47.322;18.784;2023-03-14T10:35:53;1.60;;;0.50;;
48809;SDS011;40070;47.322;18.784;2023-03-14T10:37:59;1.70;;;0.50;;
48809;SDS011;40070;47.322;18.784;2023-03-14T10:40:18;2.00;;;0.80;;
48809;SDS011;40070;47.322;18.784;2023-03-14T10:42:24;2.90;;;0.90;;
48809;SDS011;40070;47.322;18.784;2023-03-14T10:44:28;3.00;;;0.60;;
48809;SDS011;40070;47.322;18.784;2023-03-14T10:46:31;2.90;;;0.70;;
48809;SDS011;40070;47.322;18.784;2023-03-14T10:48:48;1.10;;;0.60;;
48809;SDS011;40070;47.322;18.784;2023-03-14T10:53:02;1.60;;;0.60;;
48809;SDS011;40070;47.322;18.784;2023-03-14T10:55:02;4.20;;;0.70;;
48809;SDS011;40070;47.322;18.784;2023-03-14T10:57:06;1.60;;;0.80;;
48809;SDS011;40070;47.322;18.784;2023-03-14T10:59:12;1.60;;;0.60;;
48809;SDS011;40070;47.322;18.784;2023-03-14T11:01:25;3.00;;;1.00;;
48809;SDS011;40070;47.322;18.784;2023-03-14T11:03:42;1.50;;;0.60;;
48809;SDS011;40070;47.322;18.784;2023-03-14T11:06:33;4.30;;;0.70;;
48809;SDS011;40070;47.322;18.784;2023-03-14T11:08:33;1.50;;;0.60;;
48809;SDS011;40070;47.322;18.784;2023-03-14T11:10:37;2.30;;;0.70;;
48809;SDS011;40070;47.322;18.784;2023-03-14T11:13:07;3.20;;;0.90;;
48809;SDS011;40070;47.322;18.784;2023-03-14T11:15:04;1.30;;;0.50;;
48809;SDS011;40070;47.322;18.784;2023-03-14T11:17:24;1.20;;;0.60;;
48809;SDS011;40070;47.322;18.784;2023-03-14T11:19:27;1.30;;;0.40;;
48809;SDS011;40070;47.322;18.784;2023-03-14T11:21:50;1.10;;;0.40;;
48809;SDS011;40070;47.322;18.784;2023-03-14T11:24:06;2.30;;;0.60;;
48809;SDS011;40070;47.322;18.784;2023-03-14T11:26:59;2.50;;;0.60;;
48809;SDS011;40070;47.322;18.784;2023-03-14T11:28:33;1.10;;;0.50;;
48809;SDS011;40070;47.322;18.784;2023-03-14T11:30:35;2.10;;;0.60;;
48809;SDS011;40070;47.322;18.784;2023-03-14T11:32:24;3.20;;;0.90;;
48809;SDS011;40070;47.322;18.784;2023-03-14T11:34:36;2.30;;;0.80;;
48809;SDS011;40070;47.322;18.784;2023-03-14T11:36:46;1.80;;;0.50;;
48809;SDS011;40070;47.322;18.784;2023-03-14T11:38:56;1.70;;;0.60;;
48809;SDS011;40070;47.322;18.784;2023-03-14T11:40:59;1.80;;;0.60;;
48809;SDS011;40070;47.322;18.784;2023-03-14T11:43:09;2.70;;;0.60;;
48809;SDS011;40070;47.322;18.784;2023-03-14T11:45:12;3.00;;;0.70;;
48809;SDS011;40070;47.322;18.784;2023-03-14T11:47:15;2.10;;;0.90;;
48809;SDS011;40070;47.322;18.784;2023-03-14T11:52:03;1.70;;;0.50;;
48809;SDS011;40070;47.322;18.784;2023-03-14T11:53:53;2.60;;;0.70;;
48809;SDS011;40070;47.322;18.784;2023-03-14T11:55:53;1.60;;;0.60;;
48809;SDS011;40070;47.322;18.784;2023-03-14T11:57:56;2.50;;;1.00;;
48809;SDS011;40070;47.322;18.784;2023-03-14T12:00:19;1.50;;;0.60;;
48809;SDS011;40070;47.322;18.784;2023-03-14T12:02:25;2.70;;;0.60;;
48809;SDS011;40070;47.322;18.784;2023-03-14T12:04:48;2.90;;;0.60;;
48809;SDS011;40070;47.322;18.784;2023-03-14T12:06:49;1.70;;;0.60;;
48809;SDS011;40070;47.322;18.784;2023-03-14T12:08:50;1.30;;;0.60;;
48809;SDS011;40070;47.322;18.784;2023-03-14T12:10:52;1.60;;;0.50;;
48809;SDS011;40070;47.322;18.784;2023-03-14T12:12:53;1.20;;;0.60;;
48809;SDS011;40070;47.322;18.784;2023-03-14T12:14:59;1.40;;;0.50;;